createdAt,value
2022-11-08T00:01:33.863Z,5.15
2022-11-08T00:06:54.731Z,5.15
2022-11-08T00:12:15.337Z,4.90
2022-11-08T00:17:18.486Z,6.22
2022-11-08T00:22:20.549Z,5.45
2022-11-08T00:27:24.023Z,5.30
2022-11-08T00:32:26.721Z,4.85
2022-11-08T00:37:28.500Z,5.03
2022-11-08T00:42:30.340Z,4.85
2022-11-08T00:47:32.103Z,4.55
2022-11-08T00:52:33.900Z,5.03
2022-11-08T00:57:54.039Z,5.93
2022-11-08T01:03:15.940Z,5.20
2022-11-08T01:08:19.865Z,5.00
2022-11-08T01:13:23.029Z,5.68
2022-11-08T01:18:25.150Z,6.43
2022-11-08T01:23:26.964Z,5.00
2022-11-08T01:28:28.756Z,4.65
2022-11-08T01:33:30.572Z,4.68
2022-11-08T01:38:32.323Z,4.50
2022-11-08T01:43:46.366Z,4.50
2022-11-08T01:49:14.427Z,4.78
2022-11-08T01:54:30.282Z,3.95
2022-11-08T01:59:34.460Z,4.43
2022-11-08T02:04:37.773Z,3.90
2022-11-08T02:09:41.845Z,4.18
2022-11-08T02:14:43.629Z,5.00
2022-11-08T02:19:50.837Z,4.60
2022-11-08T02:24:52.912Z,4.10
2022-11-08T02:29:55.804Z,3.95
2022-11-08T02:34:59.398Z,3.88
2022-11-08T02:40:01.264Z,3.70
2022-11-08T02:45:03.259Z,4.30
2022-11-08T02:50:05.626Z,5.20
2022-11-08T02:55:07.697Z,11.68
2022-11-08T03:00:10.346Z,5.82
2022-11-08T03:05:12.115Z,3.90
2022-11-08T03:10:14.770Z,4.60
2022-11-08T03:15:16.538Z,4.90
2022-11-08T03:20:18.586Z,6.60
2022-11-08T03:25:20.357Z,5.38
2022-11-08T03:30:22.202Z,4.50
2022-11-08T03:35:24.298Z,5.03
2022-11-08T03:40:26.766Z,4.22
2022-11-08T03:45:28.546Z,4.13
2022-11-08T03:50:30.390Z,4.53
2022-11-08T03:55:32.294Z,4.53
2022-11-08T04:00:34.090Z,4.75
2022-11-08T04:05:35.966Z,5.70
2022-11-08T04:10:37.847Z,6.80
2022-11-08T04:15:39.787Z,6.75
2022-11-08T04:21:05.765Z,4.90
2022-11-08T04:26:08.547Z,5.78
2022-11-08T04:31:14.051Z,5.88
2022-11-08T04:36:17.542Z,6.05
2022-11-08T04:41:22.257Z,5.38
2022-11-08T04:46:26.569Z,5.82
2022-11-08T04:51:31.051Z,5.75
2022-11-08T04:56:32.882Z,5.40
2022-11-08T05:01:34.811Z,6.15
2022-11-08T05:06:36.830Z,5.38
2022-11-08T05:11:38.608Z,5.78
2022-11-08T05:16:40.471Z,5.53
2022-11-08T05:22:00.791Z,5.55
2022-11-08T05:27:02.580Z,5.43
2022-11-08T05:32:04.523Z,6.22
2022-11-08T05:37:06.270Z,6.40
2022-11-08T05:42:08.026Z,6.60
2022-11-08T05:47:10.235Z,7.80
2022-11-08T05:52:11.966Z,7.85
2022-11-08T05:57:13.747Z,8.52
2022-11-08T06:02:17.177Z,7.22
2022-11-08T06:07:18.974Z,6.65
2022-11-08T06:12:20.844Z,6.43
2022-11-08T06:17:26.338Z,7.90
2022-11-08T06:22:32.639Z,7.63
2022-11-08T06:27:34.738Z,7.63
2022-11-08T06:32:36.478Z,7.43
2022-11-08T06:37:38.237Z,7.70
2022-11-08T06:42:40.084Z,7.18
2022-11-08T06:47:41.825Z,9.48
2022-11-08T06:52:43.579Z,9.13
2022-11-08T06:57:45.355Z,8.57
2022-11-08T07:02:59.417Z,10.10
2022-11-08T07:08:01.920Z,13.93
2022-11-08T07:13:06.720Z,14.13
2022-11-08T07:18:13.376Z,16.65
2022-11-08T07:23:15.290Z,16.27
2022-11-08T07:28:18.724Z,18.33
2022-11-08T07:33:21.103Z,18.05
2022-11-08T07:38:23.544Z,19.75
2022-11-08T07:43:27.233Z,20.08
2022-11-08T07:48:32.193Z,18.95
2022-11-08T07:53:34.038Z,17.88
2022-11-08T07:58:35.869Z,17.60
2022-11-08T08:03:37.685Z,16.98
2022-11-08T08:08:39.428Z,16.35
2022-11-08T08:13:41.681Z,16.25
2022-11-08T08:18:43.440Z,15.43
2022-11-08T08:23:45.208Z,14.68
2022-11-08T08:28:47.030Z,14.50
2022-11-08T08:33:48.820Z,12.65
2022-11-08T08:38:50.570Z,6.40
2022-11-08T08:43:52.321Z,5.53
2022-11-08T08:48:54.169Z,5.20
2022-11-08T08:53:55.929Z,5.03
2022-11-08T09:04:19.648Z,4.55
2022-11-08T09:09:22.187Z,3.42
2022-11-08T09:14:23.911Z,4.43
2022-11-08T09:19:25.796Z,3.72
2022-11-08T09:24:27.550Z,4.85
2022-11-08T09:29:33.452Z,5.18
2022-11-08T09:34:36.338Z,5.80
2022-11-08T09:39:38.103Z,6.63
2022-11-08T09:44:50.947Z,6.85
2022-11-08T09:50:30.367Z,6.85
2022-11-08T09:55:37.453Z,7.10
2022-11-08T10:00:40.789Z,8.00
2022-11-08T10:05:51.004Z,8.90
2022-11-08T10:10:57.772Z,9.65
2022-11-08T10:16:18.079Z,8.77
2022-11-08T10:21:40.756Z,8.85
2022-11-08T10:26:47.242Z,9.05
2022-11-08T10:31:56.871Z,8.68
2022-11-08T10:37:03.641Z,9.05
2022-11-08T10:42:16.476Z,9.38
2022-11-08T10:47:21.199Z,9.90
2022-11-08T10:52:35.120Z,10.75
2022-11-08T10:57:43.855Z,12.32
2022-11-08T11:02:48.994Z,11.45
2022-11-08T11:07:57.634Z,11.20
2022-11-08T11:13:10.118Z,11.50
2022-11-08T11:18:24.037Z,11.30
2022-11-08T11:23:34.389Z,11.68
2022-11-08T11:28:36.285Z,11.65
2022-11-08T11:33:45.172Z,11.90
2022-11-08T11:38:55.540Z,11.57
2022-11-08T11:44:00.115Z,10.93
2022-11-08T11:49:12.139Z,11.20
2022-11-08T11:54:16.353Z,10.95
2022-11-08T11:59:33.044Z,10.63
2022-11-08T12:05:16.425Z,10.98
2022-11-08T12:10:31.736Z,11.10
2022-11-08T12:15:50.734Z,11.20
2022-11-08T12:21:08.230Z,12.20
2022-11-08T12:26:15.712Z,11.43
2022-11-08T12:31:46.624Z,11.55
2022-11-08T12:37:02.120Z,11.80
2022-11-08T12:42:30.206Z,12.05
2022-11-08T12:47:37.871Z,12.07
2022-11-08T12:52:48.626Z,11.75
2022-11-08T12:57:52.483Z,12.15
2022-11-08T13:03:28.677Z,12.07
2022-11-08T13:08:40.642Z,12.30
2022-11-08T13:13:54.781Z,11.98
2022-11-08T13:19:01.444Z,12.30
2022-11-08T13:24:09.937Z,12.30
2022-11-08T13:29:27.431Z,12.82
2022-11-08T13:35:04.907Z,12.02
2022-11-08T13:40:31.687Z,12.32
2022-11-08T13:45:34.600Z,11.82
2022-11-08T13:50:49.870Z,11.63
2022-11-08T13:55:57.527Z,12.00
2022-11-08T14:01:01.220Z,12.10
2022-11-08T14:06:05.977Z,12.05
2022-11-08T14:11:34.996Z,12.02
2022-11-08T14:16:47.135Z,12.50
2022-11-08T14:21:51.482Z,11.80
2022-11-08T14:26:53.599Z,12.20
2022-11-08T14:32:07.307Z,12.75
2022-11-08T14:37:19.895Z,11.60
2022-11-08T14:42:26.262Z,12.07
2022-11-08T14:47:32.185Z,13.10
2022-11-08T14:52:33.907Z,12.93
2022-11-08T14:57:43.885Z,12.20
2022-11-08T15:03:10.560Z,11.77
2022-11-08T15:08:49.770Z,11.55
2022-11-08T15:13:51.942Z,12.25
2022-11-08T15:18:53.826Z,10.98
2022-11-08T15:24:12.551Z,10.10
2022-11-08T15:29:14.051Z,10.13
2022-11-08T15:34:26.125Z,9.95
2022-11-08T15:39:38.978Z,9.60
2022-11-08T15:45:14.724Z,9.18
2022-11-08T15:50:22.304Z,10.57
2022-11-08T15:55:28.170Z,11.98
2022-11-08T16:00:36.338Z,12.45
2022-11-08T16:05:38.171Z,12.43
2022-11-08T16:10:44.024Z,13.68
2022-11-08T16:15:46.950Z,13.45
2022-11-08T16:20:48.533Z,12.52
2022-11-08T16:25:52.694Z,12.13
2022-11-08T16:30:54.277Z,8.40
2022-11-08T16:35:58.160Z,15.13
2022-11-08T16:41:00.113Z,13.95
2022-11-08T16:46:06.922Z,9.88
2022-11-08T16:51:25.320Z,9.32
2022-11-08T16:56:27.043Z,9.00
2022-11-08T17:01:33.200Z,16.35
2022-11-08T17:06:34.908Z,28.60
2022-11-08T17:11:38.563Z,27.00
2022-11-08T17:16:40.131Z,16.27
2022-11-08T17:21:45.877Z,14.85
2022-11-08T17:26:47.746Z,13.02
2022-11-08T17:31:49.639Z,14.73
2022-11-08T17:36:52.861Z,16.08
2022-11-08T17:41:54.515Z,13.70
2022-11-08T17:46:56.323Z,14.02
2022-11-08T17:51:57.997Z,17.83
2022-11-08T17:56:59.631Z,14.65
2022-11-08T18:02:01.409Z,16.75
2022-11-08T18:07:03.076Z,18.50
2022-11-08T18:12:05.082Z,19.38
2022-11-08T18:17:06.682Z,18.10
2022-11-08T18:22:08.271Z,18.80
2022-11-08T18:27:10.095Z,16.92
2022-11-08T18:32:11.720Z,18.27
2022-11-08T18:37:13.293Z,16.00
2022-11-08T18:42:14.880Z,15.77
2022-11-08T18:47:16.535Z,16.13
2022-11-08T18:52:18.100Z,14.40
2022-11-08T18:57:19.926Z,15.60
2022-11-08T19:02:23.287Z,15.23
2022-11-08T19:07:25.159Z,14.90
2022-11-08T19:12:29.042Z,14.80
2022-11-08T19:17:31.894Z,20.25
2022-11-08T19:22:33.541Z,11.50
2022-11-08T19:27:35.112Z,12.40
2022-11-08T19:32:36.693Z,12.80
2022-11-08T19:37:38.244Z,15.35
2022-11-08T19:42:39.791Z,19.92
2022-11-08T19:47:41.440Z,13.45
2022-11-08T19:52:42.988Z,14.10
2022-11-08T19:57:44.658Z,14.25
2022-11-08T20:02:46.270Z,13.18
2022-11-08T20:07:48.391Z,11.50
2022-11-08T20:12:50.019Z,12.32
2022-11-08T20:17:51.640Z,10.88
2022-11-08T20:22:53.446Z,12.15
2022-11-08T20:27:54.983Z,13.73
2022-11-08T20:32:56.904Z,12.55
2022-11-08T20:37:58.542Z,14.57
2022-11-08T20:43:00.086Z,17.00
2022-11-08T20:48:02.833Z,18.70
2022-11-08T20:53:04.597Z,18.90
2022-11-08T20:58:06.152Z,22.02
2022-11-08T21:03:07.824Z,19.20
2022-11-08T21:08:58.029Z,18.02
2022-11-08T21:13:34.379Z,15.30
2022-11-08T21:18:36.988Z,16.80
2022-11-08T21:23:40.664Z,15.82
2022-11-08T21:28:42.489Z,14.43
2022-11-08T21:33:44.073Z,13.45
2022-11-08T21:38:45.774Z,12.73
2022-11-08T21:43:47.664Z,11.75
2022-11-08T21:49:00.692Z,11.18
2022-11-08T21:54:02.907Z,10.27
2022-11-08T21:59:04.503Z,9.68
2022-11-08T22:04:06.094Z,9.48
2022-11-08T22:09:07.663Z,8.50
2022-11-08T22:14:09.303Z,8.23
2022-11-08T22:19:11.600Z,8.00
2022-11-08T22:24:22.476Z,8.02
2022-11-08T22:29:24.220Z,7.18
2022-11-08T22:34:25.820Z,6.80
2022-11-08T22:39:27.365Z,6.95
2022-11-08T22:44:29.072Z,6.40
2022-11-08T22:49:30.643Z,6.22
2022-11-08T22:54:32.270Z,5.63
2022-11-08T22:59:33.813Z,4.82
2022-11-08T23:04:35.365Z,4.50
2022-11-08T23:09:36.950Z,5.32
2022-11-08T23:14:57.128Z,4.95
2022-11-08T23:20:17.375Z,4.88
2022-11-08T23:25:19.053Z,4.88
2022-11-08T23:30:39.352Z,5.18
2022-11-08T23:36:01.151Z,4.72
2022-11-08T23:41:21.785Z,5.22
2022-11-08T23:46:23.594Z,5.03
2022-11-08T23:51:25.375Z,4.50
2022-11-08T23:56:28.228Z,4.60
